Sst Orleans — CFN5087 — position and weather

sailwx.info

Track history (hours):
 
Tides and Currents Weather Stations Pressure Air Temp Water Temp Dewpoint Dewpoint Depression Visibility Wind Speed Wind Dir Waves Ship Positions

Sst Orleans

Last reported at 2017-Jan-20 05:33 UTC. Time now 2017-Jan-20 05:52 UTC.
Position N 49°31' W 123°29'.

Length 29 m; draft 5.1 m.

Type: . MMSI: 316012721.

Date/timePositionNaut miles runAvg speedWind from/ knotsBaromVisibWave heightAir tempDewpointWater temp
2017-Jan-20 05:33N 49°31' W 123°29'1 0.6
2017-Jan-20 04:33N 49°31' W 123°28'3 2.9
2017-Jan-20 03:33N 49°32' W 123°24'9 9.2
2017-Jan-20 02:33N 49°24' W 123°18'9 9.4
2017-Jan-20 01:33N 49°18' W 123°06'2 2.0
2017-Jan-20 00:33N 49°17' W 123°04'0 0.0
2017-Jan-19 23:33N 49°17' W 123°04'3 2.7
2017-Jan-19 22:33N 49°19' W 123°07'3 2.7
2017-Jan-19 21:33N 49°17' W 123°04'0 0.0
2017-Jan-19 20:33N 49°17' W 123°04'0 0.0
2017-Jan-19 19:33N 49°17' W 123°04'0 0.0
2017-Jan-19 18:33N 49°17' W 123°04'0 0.0
2017-Jan-19 17:33N 49°17' W 123°04'0 0.0
2017-Jan-19 16:33N 49°17' W 123°04'0 0.0
2017-Jan-19 15:33N 49°17' W 123°04'0 0.0
2017-Jan-19 14:33N 49°17' W 123°04'0 0.0
2017-Jan-19 13:33N 49°17' W 123°04'0 0.0
2017-Jan-19 12:33N 49°17' W 123°04'0 0.0
2017-Jan-19 11:33N 49°17' W 123°04'0 0.0
2017-Jan-19 10:33N 49°17' W 123°04'0 0.0
2017-Jan-19 09:33N 49°17' W 123°04'0 0.0
2017-Jan-19 08:33N 49°17' W 123°04'0 0.0
2017-Jan-19 07:33N 49°17' W 123°04'0 0.0
2017-Jan-19 06:33N 49°17' W 123°04'0 0.0
2017-Jan-19 05:33N 49°17' W 123°04'0 0.0
2017-Jan-19 04:33N 49°17' W 123°04'0 0.0
2017-Jan-19 03:33N 49°17' W 123°04'0 0.0
2017-Jan-19 02:33N 49°17' W 123°04'0 0.0
2017-Jan-19 01:33N 49°17' W 123°04'0 0.0
2017-Jan-19 00:33N 49°17' W 123°04'0 0.0
2017-Jan-18 23:33N 49°17' W 123°04'0 0.0
2017-Jan-18 22:33N 49°17' W 123°04'0 0.0
2017-Jan-18 21:33N 49°17' W 123°04'0 0.0
2017-Jan-18 20:33N 49°17' W 123°04'0 0.0
2017-Jan-18 19:33N 49°17' W 123°04'0 0.0
2017-Jan-18 18:33N 49°17' W 123°04'0 0.0
2017-Jan-18 17:33N 49°17' W 123°04'0 0.0
2017-Jan-18 16:33N 49°17' W 123°04'0 0.0
2017-Jan-18 15:33N 49°17' W 123°04'0 0.0
2017-Jan-18 14:33N 49°17' W 123°04'0 0.0
2017-Jan-18 13:33N 49°17' W 123°04'0 0.0
2017-Jan-18 12:33N 49°17' W 123°04'0 0.0
2017-Jan-18 11:33N 49°17' W 123°04'0 0.0
2017-Jan-18 10:33N 49°17' W 123°04'0 0.0
2017-Jan-18 09:33N 49°17' W 123°04'0 0.0
2017-Jan-18 08:33N 49°17' W 123°04'0 0.0
2017-Jan-18 07:33N 49°17' W 123°04'0 0.0
2017-Jan-18 06:33N 49°17' W 123°04'0 0.0
2017-Jan-18 05:33N 49°17' W 123°04'0 0.0
2017-Jan-18 04:33N 49°17' W 123°04'0 0.0
2017-Jan-18 03:33N 49°17' W 123°04'0 0.0
2017-Jan-18 02:33N 49°17' W 123°04'0 0.0
2017-Jan-18 01:33N 49°17' W 123°04'0 0.0
2017-Jan-18 00:33N 49°17' W 123°04'0 0.0
2017-Jan-17 23:33N 49°17' W 123°04'0 0.0
2017-Jan-17 22:33N 49°17' W 123°04'0 0.0
2017-Jan-17 21:33N 49°17' W 123°04'0 0.0
2017-Jan-17 20:33N 49°17' W 123°04'0 0.0
2017-Jan-17 19:33N 49°17' W 123°04'0 0.0
2017-Jan-17 18:33N 49°17' W 123°04'0 0.0
2017-Jan-17 17:33N 49°17' W 123°04'0 0.0
2017-Jan-17 16:33N 49°17' W 123°04'0 0.0
2017-Jan-17 15:33N 49°17' W 123°04'0 0.0
2017-Jan-17 14:33N 49°17' W 123°04'0 0.0
2017-Jan-17 13:33N 49°17' W 123°04'0 0.0
2017-Jan-17 12:33N 49°17' W 123°04'0 0.0
2017-Jan-17 11:33N 49°17' W 123°04'0 0.0
2017-Jan-17 10:33N 49°17' W 123°04'0 0.0
2017-Jan-17 09:33N 49°17' W 123°04'0 0.0
2017-Jan-17 08:33N 49°17' W 123°04'0 0.0
2017-Jan-17 07:33N 49°17' W 123°04'0 0.0
2017-Jan-17 06:33N 49°17' W 123°04'0 0.0
2017-Jan-17 05:33N 49°17' W 123°04'1 0.7
2017-Jan-17 04:33N 49°18' W 123°04'1 0.5
2017-Jan-17 03:33N 49°18' W 123°04'0 0.1
2017-Jan-17 02:33N 49°17' W 123°04'0 0.0
2017-Jan-17 01:33N 49°17' W 123°04'0 0.0
2017-Jan-17 00:33N 49°17' W 123°04'0 0.3
2017-Jan-16 23:33N 49°18' W 123°04'0 0.2
2017-Jan-16 22:33N 49°17' W 123°04'0 0.2
2017-Jan-16 21:33N 49°17' W 123°04'0 0.0
2017-Jan-16 20:33N 49°17' W 123°04'0 0.0
2017-Jan-16 19:33N 49°17' W 123°04'0 0.0
2017-Jan-16 18:33N 49°17' W 123°04'0 0.0
2017-Jan-16 17:33N 49°17' W 123°04'0 0.0
2017-Jan-16 16:33N 49°17' W 123°04'0 0.0
2017-Jan-16 15:33N 49°17' W 123°04'0 0.0
2017-Jan-16 14:33N 49°17' W 123°04'0 0.0
2017-Jan-16 13:33N 49°17' W 123°04'0 0.0
2017-Jan-16 12:33N 49°17' W 123°04'0 0.0
2017-Jan-16 11:33N 49°17' W 123°04'0 0.0
2017-Jan-16 10:33N 49°17' W 123°04'0 0.0
2017-Jan-16 09:33N 49°17' W 123°04'0 0.0
2017-Jan-16 08:33N 49°17' W 123°04'1 1.3
2017-Jan-16 07:33N 49°17' W 123°06'1 1.3
2017-Jan-16 06:33N 49°18' W 123°07'2 2.3
2017-Jan-16 05:33N 49°17' W 123°04'0 0.0
2017-Jan-16 04:33N 49°17' W 123°04'0 0.0
2017-Jan-16 03:33N 49°17' W 123°04'0 0.0
2017-Jan-16 02:33N 49°17' W 123°04'0 0.0
2017-Jan-16 01:33N 49°17' W 123°04'0 0.0
2017-Jan-16 00:33N 49°17' W 123°04'0 0.0
2017-Jan-15 23:33N 49°17' W 123°04'0 0.0
2017-Jan-15 22:33N 49°17' W 123°04'0 0.0
2017-Jan-15 21:33N 49°17' W 123°04'0 0.0
2017-Jan-15 20:33N 49°17' W 123°04'0 0.0
2017-Jan-15 19:33N 49°17' W 123°04'0 0.0
2017-Jan-15 18:33N 49°17' W 123°04'2 2.5
2017-Jan-15 17:33N 49°19' W 123°07'0 0.4
2017-Jan-15 16:34N 49°19' W 123°08'3 2.6
2017-Jan-15 15:33N 49°18' W 123°04'0 0.3
2017-Jan-15 14:33N 49°17' W 123°04'0 0.0
2017-Jan-15 13:33N 49°17' W 123°04'0 0.0
2017-Jan-15 12:33N 49°17' W 123°04'0 0.0
2017-Jan-15 11:33N 49°17' W 123°04'0 0.0
2017-Jan-15 10:33N 49°17' W 123°04'0 0.0
2017-Jan-15 09:33N 49°17' W 123°04'0 0.0
2017-Jan-15 08:33N 49°17' W 123°04'0 0.0
2017-Jan-15 07:33N 49°17' W 123°04'0 0.0
2017-Jan-15 06:33N 49°17' W 123°04'0 0.0
2017-Jan-15 05:33N 49°17' W 123°04'0 0.0
2017-Jan-15 04:33N 49°17' W 123°04'0 0.0
2017-Jan-15 03:33N 49°17' W 123°04'0 0.0
2017-Jan-15 02:33N 49°17' W 123°04'0 0.0
2017-Jan-15 01:33N 49°17' W 123°04'0 0.0
2017-Jan-15 00:33N 49°17' W 123°04'0 0.0
2017-Jan-14 23:33N 49°17' W 123°04'0 0.0
2017-Jan-14 22:33N 49°17' W 123°04'0 0.0
2017-Jan-14 21:33N 49°17' W 123°04'0 0.0
2017-Jan-14 20:33N 49°17' W 123°04'0 0.0
2017-Jan-14 19:33N 49°17' W 123°04'0 0.0
2017-Jan-14 18:33N 49°17' W 123°04'0 0.0
2017-Jan-14 17:33N 49°17' W 123°04'0 0.0
2017-Jan-14 16:33N 49°17' W 123°04'0 0.0
2017-Jan-14 15:33N 49°17' W 123°04'0 0.0
2017-Jan-14 14:33N 49°17' W 123°04'0 0.0
2017-Jan-14 13:33N 49°17' W 123°04'0 0.0
2017-Jan-14 12:33N 49°17' W 123°04'0 0.0
2017-Jan-14 11:33N 49°17' W 123°04'2 2.4
2017-Jan-14 10:33N 49°18' W 123°07'0 0.0
2017-Jan-14 09:33N 49°19' W 123°07'1 1.2
2017-Jan-14 08:33N 49°17' W 123°06'0 0.2
2017-Jan-14 07:33N 49°17' W 123°06'1 1.3
2017-Jan-14 06:33N 49°18' W 123°07'1 1.3
2017-Jan-14 05:33N 49°17' W 123°06'1 1.4
2017-Jan-14 04:33N 49°17' W 123°04'0 0.0
2017-Jan-14 03:33N 49°17' W 123°04'0 0.0
2017-Jan-13 23:33N 49°17' W 123°04'0 0.0
2017-Jan-13 22:33N 49°17' W 123°04'0 0.0
2017-Jan-13 21:33N 49°17' W 123°04'0 0.0
2017-Jan-13 20:33N 49°17' W 123°04'0 0.0
2017-Jan-13 19:33N 49°17' W 123°04'0 0.0
2017-Jan-13 18:33N 49°17' W 123°04'0 0.0
2017-Jan-13 17:33N 49°17' W 123°04'0 0.0
2017-Jan-13 16:33N 49°17' W 123°04'0 0.0
2017-Jan-13 15:33N 49°17' W 123°04'0 0.0
2017-Jan-13 14:33N 49°17' W 123°04'0 0.0
2017-Jan-13 13:33N 49°17' W 123°04'0 0.0
2017-Jan-13 12:33N 49°17' W 123°04'0 0.0
2017-Jan-13 11:33N 49°17' W 123°04'0 0.0
2017-Jan-13 10:33N 49°17' W 123°04'0 0.0
2017-Jan-13 09:33N 49°17' W 123°04'0 0.0
2017-Jan-13 08:33N 49°17' W 123°04'0 0.0
2017-Jan-13 07:33N 49°17' W 123°04'0 0.0
2017-Jan-13 06:33N 49°17' W 123°04'0 0.0
2017-Jan-13 05:33N 49°17' W 123°04'0 0.0
2017-Jan-13 04:33N 49°17' W 123°04'0 0.0
2017-Jan-13 03:33N 49°17' W 123°04'0 0.0
2017-Jan-13 02:33N 49°17' W 123°04'0 0.0
2017-Jan-13 01:33N 49°17' W 123°04'0 0.0
2017-Jan-13 00:33N 49°17' W 123°04'0 0.0
2017-Jan-12 23:33N 49°17' W 123°04'0 0.0
2017-Jan-12 22:33N 49°17' W 123°04'0 0.0
2017-Jan-12 21:34N 49°17' W 123°04'0 0.5
2017-Jan-12 20:33N 49°18' W 123°03'0 0.2
2017-Jan-12 19:33N 49°18' W 123°03'1 0.6
2017-Jan-12 18:33N 49°17' W 123°04'0 0.0
2017-Jan-12 17:33N 49°17' W 123°04'0 0.0
2017-Jan-12 16:33N 49°17' W 123°04'0 0.0
2017-Jan-12 15:33N 49°17' W 123°04'0 0.0
2017-Jan-12 14:33N 49°17' W 123°04'0 0.0
2017-Jan-12 13:33N 49°17' W 123°04'0 0.0
2017-Jan-12 12:33N 49°17' W 123°04'0 0.0
2017-Jan-12 11:33N 49°17' W 123°04'0 0.0
2017-Jan-12 10:33N 49°17' W 123°04'0 0.0
2017-Jan-12 09:33N 49°17' W 123°04'0 0.0
2017-Jan-12 08:33N 49°17' W 123°04'0 0.0
2017-Jan-12 07:33N 49°17' W 123°04'0 0.0
2017-Jan-12 06:33N 49°17' W 123°04'0 0.0
2017-Jan-12 05:33N 49°17' W 123°04'1 1.4
2017-Jan-12 04:33N 49°17' W 123°06'1 1.4
2017-Jan-12 03:33N 49°17' W 123°04'0 0.0
2017-Jan-12 02:33N 49°17' W 123°04'9 9.1
2017-Jan-12 01:33N 49°20' W 123°17'1110.4
2017-Jan-12 00:33N 49°31' W 123°17'1 0.3
2017-Jan-11 21:20N 49°30' W 123°17'7 9.4
2017-Jan-11 20:33N 49°22' W 123°18'7 7.5
2017-Jan-11 19:33N 49°19' W 123°08'3 3.2
2017-Jan-11 18:33N 49°17' W 123°04'2 2.5
2017-Jan-11 17:33N 49°19' W 123°07'0 0.3
2017-Jan-11 16:33N 49°18' W 123°07'2 2.2
2017-Jan-11 15:33N 49°17' W 123°04'0 0.0
2017-Jan-11 14:33N 49°17' W 123°04'0 0.0
2017-Jan-11 13:34N 49°17' W 123°04'0 0.0
2017-Jan-11 12:33N 49°17' W 123°04'0 0.0
2017-Jan-11 11:33N 49°17' W 123°04'0 0.0
2017-Jan-11 10:33N 49°17' W 123°04'0 0.0
2017-Jan-11 09:33N 49°17' W 123°04'0 0.0
2017-Jan-11 08:33N 49°17' W 123°04'3 2.5
2017-Jan-11 07:33N 49°19' W 123°07'0 0.1
2017-Jan-11 06:33N 49°18' W 123°07'2 2.4
2017-Jan-11 05:33N 49°17' W 123°04'0 0.0
2017-Jan-11 04:33N 49°17' W 123°04'0 0.0
2017-Jan-11 03:33N 49°17' W 123°04'0 0.0
2017-Jan-11 02:33N 49°17' W 123°04'0 0.0
2017-Jan-11 01:33N 49°17' W 123°04'0 0.0
2017-Jan-11 00:33N 49°17' W 123°04'1 0.8
2017-Jan-10 23:33N 49°18' W 123°03'1 1.2
2017-Jan-10 22:33N 49°18' W 123°05'1 1.1
2017-Jan-10 21:34N 49°18' W 123°03'1 0.8
2017-Jan-10 20:33N 49°17' W 123°04'0 0.0
2017-Jan-10 19:33N 49°17' W 123°04'0 0.0
2017-Jan-10 18:33N 49°17' W 123°04'0 0.0
2017-Jan-10 17:33N 49°17' W 123°04'0 0.0
2017-Jan-10 16:33N 49°17' W 123°04'1 0.6
2017-Jan-10 15:33N 49°17' W 123°05'1 0.6
2017-Jan-10 14:33N 49°17' W 123°04'0 0.0
2017-Jan-10 13:33N 49°17' W 123°04'0 0.0
2017-Jan-10 12:33N 49°17' W 123°04'0 0.0
2017-Jan-10 11:33N 49°17' W 123°04'0 0.0
2017-Jan-10 10:33N 49°17' W 123°04'1 1.3
2017-Jan-10 09:33N 49°17' W 123°06'1 1.3
2017-Jan-10 08:33N 49°17' W 123°04'0 0.0
2017-Jan-10 07:33N 49°17' W 123°04'0 0.0
2017-Jan-10 06:33N 49°17' W 123°04'  
Track history (hours):
 
Tides and Currents Weather Stations Pressure Air Temp Water Temp Dewpoint Dewpoint Depression Visibility Wind Speed Wind Dir Waves Ship Positions

Sst Orleans

Last reported at 2017-Jan-20 05:33 UTC. Time now 2017-Jan-20 05:52 UTC.
Position N 49°31' W 123°29'.

Length 29 m; draft 5.1 m.

Type: . MMSI: 316012721.

Date/timePositionNaut miles runAvg speedWind from/ knotsBaromVisibWave heightAir tempDewpointWater temp
2017-Jan-20 05:33N 49°31' W 123°29'1 0.6
2017-Jan-20 04:33N 49°31' W 123°28'3 2.9
2017-Jan-20 03:33N 49°32' W 123°24'9 9.2
2017-Jan-20 02:33N 49°24' W 123°18'9 9.4
2017-Jan-20 01:33N 49°18' W 123°06'2 2.0
2017-Jan-20 00:33N 49°17' W 123°04'0 0.0
2017-Jan-19 23:33N 49°17' W 123°04'3 2.7
2017-Jan-19 22:33N 49°19' W 123°07'3 2.7
2017-Jan-19 21:33N 49°17' W 123°04'0 0.0
2017-Jan-19 20:33N 49°17' W 123°04'0 0.0
2017-Jan-19 19:33N 49°17' W 123°04'0 0.0
2017-Jan-19 18:33N 49°17' W 123°04'0 0.0
2017-Jan-19 17:33N 49°17' W 123°04'0 0.0
2017-Jan-19 16:33N 49°17' W 123°04'0 0.0
2017-Jan-19 15:33N 49°17' W 123°04'0 0.0
2017-Jan-19 14:33N 49°17' W 123°04'0 0.0
2017-Jan-19 13:33N 49°17' W 123°04'0 0.0
2017-Jan-19 12:33N 49°17' W 123°04'0 0.0
2017-Jan-19 11:33N 49°17' W 123°04'0 0.0
2017-Jan-19 10:33N 49°17' W 123°04'0 0.0
2017-Jan-19 09:33N 49°17' W 123°04'0 0.0
2017-Jan-19 08:33N 49°17' W 123°04'0 0.0
2017-Jan-19 07:33N 49°17' W 123°04'0 0.0
2017-Jan-19 06:33N 49°17' W 123°04'0 0.0
2017-Jan-19 05:33N 49°17' W 123°04'0 0.0
2017-Jan-19 04:33N 49°17' W 123°04'0 0.0
2017-Jan-19 03:33N 49°17' W 123°04'0 0.0
2017-Jan-19 02:33N 49°17' W 123°04'0 0.0
2017-Jan-19 01:33N 49°17' W 123°04'0 0.0
2017-Jan-19 00:33N 49°17' W 123°04'0 0.0
2017-Jan-18 23:33N 49°17' W 123°04'0 0.0
2017-Jan-18 22:33N 49°17' W 123°04'0 0.0
2017-Jan-18 21:33N 49°17' W 123°04'0 0.0
2017-Jan-18 20:33N 49°17' W 123°04'0 0.0
2017-Jan-18 19:33N 49°17' W 123°04'0 0.0
2017-Jan-18 18:33N 49°17' W 123°04'0 0.0
2017-Jan-18 17:33N 49°17' W 123°04'0 0.0
2017-Jan-18 16:33N 49°17' W 123°04'0 0.0
2017-Jan-18 15:33N 49°17' W 123°04'0 0.0
2017-Jan-18 14:33N 49°17' W 123°04'0 0.0
2017-Jan-18 13:33N 49°17' W 123°04'0 0.0
2017-Jan-18 12:33N 49°17' W 123°04'0 0.0
2017-Jan-18 11:33N 49°17' W 123°04'0 0.0
2017-Jan-18 10:33N 49°17' W 123°04'0 0.0
2017-Jan-18 09:33N 49°17' W 123°04'0 0.0
2017-Jan-18 08:33N 49°17' W 123°04'0 0.0
2017-Jan-18 07:33N 49°17' W 123°04'0 0.0
2017-Jan-18 06:33N 49°17' W 123°04'0 0.0
2017-Jan-18 05:33N 49°17' W 123°04'0 0.0
2017-Jan-18 04:33N 49°17' W 123°04'0 0.0
2017-Jan-18 03:33N 49°17' W 123°04'0 0.0
2017-Jan-18 02:33N 49°17' W 123°04'0 0.0
2017-Jan-18 01:33N 49°17' W 123°04'0 0.0
2017-Jan-18 00:33N 49°17' W 123°04'0 0.0
2017-Jan-17 23:33N 49°17' W 123°04'0 0.0
2017-Jan-17 22:33N 49°17' W 123°04'0 0.0
2017-Jan-17 21:33N 49°17' W 123°04'0 0.0
2017-Jan-17 20:33N 49°17' W 123°04'0 0.0
2017-Jan-17 19:33N 49°17' W 123°04'0 0.0
2017-Jan-17 18:33N 49°17' W 123°04'0 0.0
2017-Jan-17 17:33N 49°17' W 123°04'0 0.0
2017-Jan-17 16:33N 49°17' W 123°04'0 0.0
2017-Jan-17 15:33N 49°17' W 123°04'0 0.0
2017-Jan-17 14:33N 49°17' W 123°04'0 0.0
2017-Jan-17 13:33N 49°17' W 123°04'0 0.0
2017-Jan-17 12:33N 49°17' W 123°04'0 0.0
2017-Jan-17 11:33N 49°17' W 123°04'0 0.0
2017-Jan-17 10:33N 49°17' W 123°04'0 0.0
2017-Jan-17 09:33N 49°17' W 123°04'0 0.0
2017-Jan-17 08:33N 49°17' W 123°04'0 0.0
2017-Jan-17 07:33N 49°17' W 123°04'0 0.0
2017-Jan-17 06:33N 49°17' W 123°04'0 0.0
2017-Jan-17 05:33N 49°17' W 123°04'1 0.7
2017-Jan-17 04:33N 49°18' W 123°04'1 0.5
2017-Jan-17 03:33N 49°18' W 123°04'0 0.1
2017-Jan-17 02:33N 49°17' W 123°04'0 0.0
2017-Jan-17 01:33N 49°17' W 123°04'0 0.0
2017-Jan-17 00:33N 49°17' W 123°04'0 0.3
2017-Jan-16 23:33N 49°18' W 123°04'0 0.2
2017-Jan-16 22:33N 49°17' W 123°04'0 0.2
2017-Jan-16 21:33N 49°17' W 123°04'0 0.0
2017-Jan-16 20:33N 49°17' W 123°04'0 0.0
2017-Jan-16 19:33N 49°17' W 123°04'0 0.0
2017-Jan-16 18:33N 49°17' W 123°04'0 0.0
2017-Jan-16 17:33N 49°17' W 123°04'0 0.0
2017-Jan-16 16:33N 49°17' W 123°04'0 0.0
2017-Jan-16 15:33N 49°17' W 123°04'0 0.0
2017-Jan-16 14:33N 49°17' W 123°04'0 0.0
2017-Jan-16 13:33N 49°17' W 123°04'0 0.0
2017-Jan-16 12:33N 49°17' W 123°04'0 0.0
2017-Jan-16 11:33N 49°17' W 123°04'0 0.0
2017-Jan-16 10:33N 49°17' W 123°04'0 0.0
2017-Jan-16 09:33N 49°17' W 123°04'0 0.0
2017-Jan-16 08:33N 49°17' W 123°04'1 1.3
2017-Jan-16 07:33N 49°17' W 123°06'1 1.3
2017-Jan-16 06:33N 49°18' W 123°07'2 2.3
2017-Jan-16 05:33N 49°17' W 123°04'0 0.0
2017-Jan-16 04:33N 49°17' W 123°04'0 0.0
2017-Jan-16 03:33N 49°17' W 123°04'0 0.0
2017-Jan-16 02:33N 49°17' W 123°04'0 0.0
2017-Jan-16 01:33N 49°17' W 123°04'0 0.0
2017-Jan-16 00:33N 49°17' W 123°04'0 0.0
2017-Jan-15 23:33N 49°17' W 123°04'0 0.0
2017-Jan-15 22:33N 49°17' W 123°04'0 0.0
2017-Jan-15 21:33N 49°17' W 123°04'0 0.0
2017-Jan-15 20:33N 49°17' W 123°04'0 0.0
2017-Jan-15 19:33N 49°17' W 123°04'0 0.0
2017-Jan-15 18:33N 49°17' W 123°04'2 2.5
2017-Jan-15 17:33N 49°19' W 123°07'0 0.4
2017-Jan-15 16:34N 49°19' W 123°08'3 2.6
2017-Jan-15 15:33N 49°18' W 123°04'0 0.3
2017-Jan-15 14:33N 49°17' W 123°04'0 0.0
2017-Jan-15 13:33N 49°17' W 123°04'0 0.0
2017-Jan-15 12:33N 49°17' W 123°04'0 0.0
2017-Jan-15 11:33N 49°17' W 123°04'0 0.0
2017-Jan-15 10:33N 49°17' W 123°04'0 0.0
2017-Jan-15 09:33N 49°17' W 123°04'0 0.0
2017-Jan-15 08:33N 49°17' W 123°04'0 0.0
2017-Jan-15 07:33N 49°17' W 123°04'0 0.0
2017-Jan-15 06:33N 49°17' W 123°04'0 0.0
2017-Jan-15 05:33N 49°17' W 123°04'0 0.0
2017-Jan-15 04:33N 49°17' W 123°04'0 0.0
2017-Jan-15 03:33N 49°17' W 123°04'0 0.0
2017-Jan-15 02:33N 49°17' W 123°04'0 0.0
2017-Jan-15 01:33N 49°17' W 123°04'0 0.0
2017-Jan-15 00:33N 49°17' W 123°04'0 0.0
2017-Jan-14 23:33N 49°17' W 123°04'0 0.0
2017-Jan-14 22:33N 49°17' W 123°04'0 0.0
2017-Jan-14 21:33N 49°17' W 123°04'0 0.0
2017-Jan-14 20:33N 49°17' W 123°04'0 0.0
2017-Jan-14 19:33N 49°17' W 123°04'0 0.0
2017-Jan-14 18:33N 49°17' W 123°04'0 0.0
2017-Jan-14 17:33N 49°17' W 123°04'0 0.0
2017-Jan-14 16:33N 49°17' W 123°04'0 0.0
2017-Jan-14 15:33N 49°17' W 123°04'0 0.0
2017-Jan-14 14:33N 49°17' W 123°04'0 0.0
2017-Jan-14 13:33N 49°17' W 123°04'0 0.0
2017-Jan-14 12:33N 49°17' W 123°04'0 0.0
2017-Jan-14 11:33N 49°17' W 123°04'2 2.4
2017-Jan-14 10:33N 49°18' W 123°07'0 0.0
2017-Jan-14 09:33N 49°19' W 123°07'1 1.2
2017-Jan-14 08:33N 49°17' W 123°06'0 0.2
2017-Jan-14 07:33N 49°17' W 123°06'1 1.3
2017-Jan-14 06:33N 49°18' W 123°07'1 1.3
2017-Jan-14 05:33N 49°17' W 123°06'1 1.4
2017-Jan-14 04:33N 49°17' W 123°04'0 0.0
2017-Jan-14 03:33N 49°17' W 123°04'0 0.0
2017-Jan-13 23:33N 49°17' W 123°04'0 0.0
2017-Jan-13 22:33N 49°17' W 123°04'0 0.0
2017-Jan-13 21:33N 49°17' W 123°04'0 0.0
2017-Jan-13 20:33N 49°17' W 123°04'0 0.0
2017-Jan-13 19:33N 49°17' W 123°04'0 0.0
2017-Jan-13 18:33N 49°17' W 123°04'0 0.0
2017-Jan-13 17:33N 49°17' W 123°04'0 0.0
2017-Jan-13 16:33N 49°17' W 123°04'0 0.0
2017-Jan-13 15:33N 49°17' W 123°04'0 0.0
2017-Jan-13 14:33N 49°17' W 123°04'0 0.0
2017-Jan-13 13:33N 49°17' W 123°04'0 0.0
2017-Jan-13 12:33N 49°17' W 123°04'0 0.0
2017-Jan-13 11:33N 49°17' W 123°04'0 0.0
2017-Jan-13 10:33N 49°17' W 123°04'0 0.0
2017-Jan-13 09:33N 49°17' W 123°04'0 0.0
2017-Jan-13 08:33N 49°17' W 123°04'0 0.0
2017-Jan-13 07:33N 49°17' W 123°04'0 0.0
2017-Jan-13 06:33N 49°17' W 123°04'0 0.0
2017-Jan-13 05:33N 49°17' W 123°04'0 0.0
2017-Jan-13 04:33N 49°17' W 123°04'0 0.0
2017-Jan-13 03:33N 49°17' W 123°04'0 0.0
2017-Jan-13 02:33N 49°17' W 123°04'0 0.0
2017-Jan-13 01:33N 49°17' W 123°04'0 0.0
2017-Jan-13 00:33N 49°17' W 123°04'0 0.0
2017-Jan-12 23:33N 49°17' W 123°04'0 0.0
2017-Jan-12 22:33N 49°17' W 123°04'0 0.0
2017-Jan-12 21:34N 49°17' W 123°04'0 0.5
2017-Jan-12 20:33N 49°18' W 123°03'0 0.2
2017-Jan-12 19:33N 49°18' W 123°03'1 0.6
2017-Jan-12 18:33N 49°17' W 123°04'0 0.0
2017-Jan-12 17:33N 49°17' W 123°04'0 0.0
2017-Jan-12 16:33N 49°17' W 123°04'0 0.0
2017-Jan-12 15:33N 49°17' W 123°04'0 0.0
2017-Jan-12 14:33N 49°17' W 123°04'0 0.0
2017-Jan-12 13:33N 49°17' W 123°04'0 0.0
2017-Jan-12 12:33N 49°17' W 123°04'0 0.0
2017-Jan-12 11:33N 49°17' W 123°04'0 0.0
2017-Jan-12 10:33N 49°17' W 123°04'0 0.0
2017-Jan-12 09:33N 49°17' W 123°04'0 0.0
2017-Jan-12 08:33N 49°17' W 123°04'0 0.0
2017-Jan-12 07:33N 49°17' W 123°04'0 0.0
2017-Jan-12 06:33N 49°17' W 123°04'0 0.0
2017-Jan-12 05:33N 49°17' W 123°04'1 1.4
2017-Jan-12 04:33N 49°17' W 123°06'1 1.4
2017-Jan-12 03:33N 49°17' W 123°04'0 0.0
2017-Jan-12 02:33N 49°17' W 123°04'9 9.1
2017-Jan-12 01:33N 49°20' W 123°17'1110.4
2017-Jan-12 00:33N 49°31' W 123°17'1 0.3
2017-Jan-11 21:20N 49°30' W 123°17'7 9.4
2017-Jan-11 20:33N 49°22' W 123°18'7 7.5
2017-Jan-11 19:33N 49°19' W 123°08'3 3.2
2017-Jan-11 18:33N 49°17' W 123°04'2 2.5
2017-Jan-11 17:33N 49°19' W 123°07'0 0.3
2017-Jan-11 16:33N 49°18' W 123°07'2 2.2
2017-Jan-11 15:33N 49°17' W 123°04'0 0.0
2017-Jan-11 14:33N 49°17' W 123°04'0 0.0
2017-Jan-11 13:34N 49°17' W 123°04'0 0.0
2017-Jan-11 12:33N 49°17' W 123°04'0 0.0
2017-Jan-11 11:33N 49°17' W 123°04'0 0.0
2017-Jan-11 10:33N 49°17' W 123°04'0 0.0
2017-Jan-11 09:33N 49°17' W 123°04'0 0.0
2017-Jan-11 08:33N 49°17' W 123°04'3 2.5
2017-Jan-11 07:33N 49°19' W 123°07'0 0.1
2017-Jan-11 06:33N 49°18' W 123°07'2 2.4
2017-Jan-11 05:33N 49°17' W 123°04'0 0.0
2017-Jan-11 04:33N 49°17' W 123°04'0 0.0
2017-Jan-11 03:33N 49°17' W 123°04'0 0.0
2017-Jan-11 02:33N 49°17' W 123°04'0 0.0
2017-Jan-11 01:33N 49°17' W 123°04'0 0.0
2017-Jan-11 00:33N 49°17' W 123°04'1 0.8
2017-Jan-10 23:33N 49°18' W 123°03'1 1.2
2017-Jan-10 22:33N 49°18' W 123°05'1 1.1
2017-Jan-10 21:34N 49°18' W 123°03'1 0.8
2017-Jan-10 20:33N 49°17' W 123°04'0 0.0
2017-Jan-10 19:33N 49°17' W 123°04'0 0.0
2017-Jan-10 18:33N 49°17' W 123°04'0 0.0
2017-Jan-10 17:33N 49°17' W 123°04'0 0.0
2017-Jan-10 16:33N 49°17' W 123°04'1 0.6
2017-Jan-10 15:33N 49°17' W 123°05'1 0.6
2017-Jan-10 14:33N 49°17' W 123°04'0 0.0
2017-Jan-10 13:33N 49°17' W 123°04'0 0.0
2017-Jan-10 12:33N 49°17' W 123°04'0 0.0
2017-Jan-10 11:33N 49°17' W 123°04'0 0.0
2017-Jan-10 10:33N 49°17' W 123°04'1 1.3
2017-Jan-10 09:33N 49°17' W 123°06'1 1.3
2017-Jan-10 08:33N 49°17' W 123°04'0 0.0
2017-Jan-10 07:33N 49°17' W 123°04'0 0.0
2017-Jan-10 06:33N 49°17' W 123°04'  

Dump ship's entire track history